sensor_id;sensor_type;location;lat;lon;timestamp;temperature;humidity
52036;DHT22;38046;49.448;32.074;2023-05-07T00:02:21;11.00;55.30
52036;DHT22;38046;49.448;32.074;2023-05-07T00:04:48;11.00;55.60
52036;DHT22;38046;49.448;32.074;2023-05-07T00:07:14;11.00;55.40
52036;DHT22;38046;49.448;32.074;2023-05-07T00:09:40;11.00;55.30
52036;DHT22;38046;49.448;32.074;2023-05-07T00:12:06;10.90;55.10
52036;DHT22;38046;49.448;32.074;2023-05-07T00:14:31;11.00;55.20
52036;DHT22;38046;49.448;32.074;2023-05-07T00:16:57;11.00;55.30
52036;DHT22;38046;49.448;32.074;2023-05-07T00:19:22;10.90;55.40
52036;DHT22;38046;49.448;32.074;2023-05-07T00:21:48;10.90;55.30
52036;DHT22;38046;49.448;32.074;2023-05-07T00:24:14;10.90;55.20
52036;DHT22;38046;49.448;32.074;2023-05-07T00:26:39;10.90;55.40
52036;DHT22;38046;49.448;32.074;2023-05-07T00:29:05;10.90;55.80
52036;DHT22;38046;49.448;32.074;2023-05-07T00:31:31;10.90;56.00
52036;DHT22;38046;49.448;32.074;2023-05-07T00:33:56;10.90;56.00
52036;DHT22;38046;49.448;32.074;2023-05-07T00:36:22;10.90;55.60
52036;DHT22;38046;49.448;32.074;2023-05-07T00:38:48;10.90;55.60
52036;DHT22;38046;49.448;32.074;2023-05-07T00:41:14;10.90;55.40
52036;DHT22;38046;49.448;32.074;2023-05-07T00:43:40;10.80;55.20
52036;DHT22;38046;49.448;32.074;2023-05-07T00:46:06;10.80;55.20
52036;DHT22;38046;49.448;32.074;2023-05-07T00:48:32;10.80;55.30
52036;DHT22;38046;49.448;32.074;2023-05-07T00:50:57;10.80;55.40
52036;DHT22;38046;49.448;32.074;2023-05-07T00:53:23;10.70;55.30
52036;DHT22;38046;49.448;32.074;2023-05-07T00:55:49;10.70;55.50
52036;DHT22;38046;49.448;32.074;2023-05-07T00:58:15;10.70;55.50
52036;DHT22;38046;49.448;32.074;2023-05-07T01:00:40;10.70;55.30
52036;DHT22;38046;49.448;32.074;2023-05-07T01:03:06;10.70;55.20
52036;DHT22;38046;49.448;32.074;2023-05-07T01:05:32;10.60;55.20
52036;DHT22;38046;49.448;32.074;2023-05-07T01:07:58;10.60;55.10
52036;DHT22;38046;49.448;32.074;2023-05-07T01:10:24;10.60;55.30
52036;DHT22;38046;49.448;32.074;2023-05-07T01:12:51;10.60;55.40
52036;DHT22;38046;49.448;32.074;2023-05-07T01:15:17;10.60;55.60
52036;DHT22;38046;49.448;32.074;2023-05-07T01:17:44;10.60;55.80
52036;DHT22;38046;49.448;32.074;2023-05-07T01:20:10;10.60;55.50
52036;DHT22;38046;49.448;32.074;2023-05-07T01:22:39;10.60;55.90
52036;DHT22;38046;49.448;32.074;2023-05-07T01:25:06;10.50;55.70
52036;DHT22;38046;49.448;32.074;2023-05-07T01:27:35;10.50;55.90
52036;DHT22;38046;49.448;32.074;2023-05-07T01:30:03;10.60;55.80
52036;DHT22;38046;49.448;32.074;2023-05-07T01:35:11;10.50;55.60
52036;DHT22;38046;49.448;32.074;2023-05-07T01:37:38;10.50;55.50
52036;DHT22;38046;49.448;32.074;2023-05-07T01:40:04;10.50;55.40
52036;DHT22;38046;49.448;32.074;2023-05-07T01:42:31;10.50;55.20
52036;DHT22;38046;49.448;32.074;2023-05-07T01:44:57;10.50;55.50
52036;DHT22;38046;49.448;32.074;2023-05-07T01:47:23;10.40;55.40
52036;DHT22;38046;49.448;32.074;2023-05-07T01:49:49;10.40;55.40
52036;DHT22;38046;49.448;32.074;2023-05-07T01:52:15;10.40;55.40
52036;DHT22;38046;49.448;32.074;2023-05-07T01:54:41;10.40;55.40
52036;DHT22;38046;49.448;32.074;2023-05-07T01:57:07;10.40;55.40
52036;DHT22;38046;49.448;32.074;2023-05-07T01:59:32;10.40;55.30
52036;DHT22;38046;49.448;32.074;2023-05-07T02:01:58;10.40;55.20
52036;DHT22;38046;49.448;32.074;2023-05-07T02:04:23;10.30;55.20
52036;DHT22;38046;49.448;32.074;2023-05-07T02:06:50;10.30;55.30
52036;DHT22;38046;49.448;32.074;2023-05-07T02:09:15;10.30;55.40
52036;DHT22;38046;49.448;32.074;2023-05-07T02:11:41;10.30;55.20
52036;DHT22;38046;49.448;32.074;2023-05-07T02:14:07;10.30;55.20
52036;DHT22;38046;49.448;32.074;2023-05-07T02:16:32;10.30;55.10
52036;DHT22;38046;49.448;32.074;2023-05-07T02:18:58;10.30;55.00
52036;DHT22;38046;49.448;32.074;2023-05-07T02:21:25;10.30;55.10
52036;DHT22;38046;49.448;32.074;2023-05-07T02:23:50;10.30;55.20
52036;DHT22;38046;49.448;32.074;2023-05-07T02:26:16;10.30;55.30
52036;DHT22;38046;49.448;32.074;2023-05-07T02:28:42;10.30;55.50
52036;DHT22;38046;49.448;32.074;2023-05-07T02:31:07;10.30;55.60
52036;DHT22;38046;49.448;32.074;2023-05-07T02:33:33;10.30;55.50
52036;DHT22;38046;49.448;32.074;2023-05-07T02:36:09;10.30;55.50
52036;DHT22;38046;49.448;32.074;2023-05-07T02:38:35;10.40;55.70
52036;DHT22;38046;49.448;32.074;2023-05-07T02:41:01;10.30;55.60
52036;DHT22;38046;49.448;32.074;2023-05-07T02:43:27;10.40;55.90
52036;DHT22;38046;49.448;32.074;2023-05-07T02:46:07;10.40;56.10
52036;DHT22;38046;49.448;32.074;2023-05-07T02:48:33;10.40;56.10
52036;DHT22;38046;49.448;32.074;2023-05-07T02:50:59;10.40;56.30
52036;DHT22;38046;49.448;32.074;2023-05-07T02:53:25;10.40;56.10
52036;DHT22;38046;49.448;32.074;2023-05-07T02:56:01;10.40;56.30
52036;DHT22;38046;49.448;32.074;2023-05-07T02:58:27;10.40;56.50
52036;DHT22;38046;49.448;32.074;2023-05-07T03:00:53;10.40;56.70
52036;DHT22;38046;49.448;32.074;2023-05-07T03:03:20;10.40;56.50
52036;DHT22;38046;49.448;32.074;2023-05-07T03:05:45;10.40;56.50
52036;DHT22;38046;49.448;32.074;2023-05-07T03:08:11;10.40;56.90
52036;DHT22;38046;49.448;32.074;2023-05-07T03:10:37;10.40;56.80
52036;DHT22;38046;49.448;32.074;2023-05-07T03:13:03;10.50;56.90
52036;DHT22;38046;49.448;32.074;2023-05-07T03:15:29;10.40;56.90
52036;DHT22;38046;49.448;32.074;2023-05-07T03:17:55;10.50;57.00
52036;DHT22;38046;49.448;32.074;2023-05-07T03:20:20;10.50;56.80
52036;DHT22;38046;49.448;32.074;2023-05-07T03:22:46;10.50;56.70
52036;DHT22;38046;49.448;32.074;2023-05-07T03:25:12;10.60;56.90
52036;DHT22;38046;49.448;32.074;2023-05-07T03:27:38;10.60;56.90
52036;DHT22;38046;49.448;32.074;2023-05-07T03:30:04;10.70;57.00
52036;DHT22;38046;49.448;32.074;2023-05-07T03:32:30;10.70;56.90
52036;DHT22;38046;49.448;32.074;2023-05-07T03:34:55;10.70;57.00
52036;DHT22;38046;49.448;32.074;2023-05-07T03:37:21;10.80;56.80
52036;DHT22;38046;49.448;32.074;2023-05-07T03:39:47;10.90;56.80
52036;DHT22;38046;49.448;32.074;2023-05-07T03:42:13;11.00;57.30
52036;DHT22;38046;49.448;32.074;2023-05-07T03:44:38;11.10;57.50
52036;DHT22;38046;49.448;32.074;2023-05-07T03:47:04;11.20;57.80
52036;DHT22;38046;49.448;32.074;2023-05-07T03:49:30;11.30;57.80
52036;DHT22;38046;49.448;32.074;2023-05-07T03:51:55;11.50;57.40
52036;DHT22;38046;49.448;32.074;2023-05-07T03:54:21;11.80;57.80
52036;DHT22;38046;49.448;32.074;2023-05-07T03:56:47;12.00;57.70
52036;DHT22;38046;49.448;32.074;2023-05-07T03:59:13;12.40;57.40
52036;DHT22;38046;49.448;32.074;2023-05-07T04:01:39;12.90;57.70
52036;DHT22;38046;49.448;32.074;2023-05-07T04:04:04;13.50;57.10
52036;DHT22;38046;49.448;32.074;2023-05-07T04:06:30;14.30;56.00
52036;DHT22;38046;49.448;32.074;2023-05-07T04:08:56;15.10;54.70
52036;DHT22;38046;49.448;32.074;2023-05-07T04:11:22;15.90;53.40
52036;DHT22;38046;49.448;32.074;2023-05-07T04:13:47;16.50;52.20
52036;DHT22;38046;49.448;32.074;2023-05-07T04:16:13;17.00;51.40
52036;DHT22;38046;49.448;32.074;2023-05-07T04:18:38;17.50;50.50
52036;DHT22;38046;49.448;32.074;2023-05-07T04:21:05;17.90;49.90
52036;DHT22;38046;49.448;32.074;2023-05-07T04:23:30;18.10;49.00
52036;DHT22;38046;49.448;32.074;2023-05-07T04:25:56;18.10;48.10
52036;DHT22;38046;49.448;32.074;2023-05-07T04:28:23;18.00;47.80
52036;DHT22;38046;49.448;32.074;2023-05-07T04:30:48;17.80;47.70
52036;DHT22;38046;49.448;32.074;2023-05-07T04:33:14;17.80;47.50
52036;DHT22;38046;49.448;32.074;2023-05-07T04:35:43;17.70;48.10
52036;DHT22;38046;49.448;32.074;2023-05-07T04:38:09;17.80;47.30
52036;DHT22;38046;49.448;32.074;2023-05-07T04:40:37;17.80;47.10
52036;DHT22;38046;49.448;32.074;2023-05-07T04:43:04;17.90;46.90
52036;DHT22;38046;49.448;32.074;2023-05-07T04:45:30;18.20;46.70
52036;DHT22;38046;49.448;32.074;2023-05-07T04:47:55;18.50;46.40
52036;DHT22;38046;49.448;32.074;2023-05-07T04:50:21;18.90;46.10
52036;DHT22;38046;49.448;32.074;2023-05-07T04:52:48;19.30;46.00
52036;DHT22;38046;49.448;32.074;2023-05-07T04:55:14;19.70;46.20
52036;DHT22;38046;49.448;32.074;2023-05-07T04:57:40;20.10;45.20
52036;DHT22;38046;49.448;32.074;2023-05-07T05:00:07;20.40;44.70
52036;DHT22;38046;49.448;32.074;2023-05-07T05:02:34;20.80;44.10
52036;DHT22;38046;49.448;32.074;2023-05-07T05:05:01;21.00;43.90
52036;DHT22;38046;49.448;32.074;2023-05-07T05:07:27;21.00;43.30
52036;DHT22;38046;49.448;32.074;2023-05-07T05:09:54;20.90;42.90
52036;DHT22;38046;49.448;32.074;2023-05-07T05:12:20;20.70;42.70
52036;DHT22;38046;49.448;32.074;2023-05-07T05:14:46;20.40;42.60
52036;DHT22;38046;49.448;32.074;2023-05-07T05:17:12;20.00;42.70
52036;DHT22;38046;49.448;32.074;2023-05-07T05:19:38;19.70;42.30
52036;DHT22;38046;49.448;32.074;2023-05-07T05:22:03;19.30;42.40
52036;DHT22;38046;49.448;32.074;2023-05-07T05:24:30;18.90;42.60
52036;DHT22;38046;49.448;32.074;2023-05-07T05:26:56;18.70;42.40
52036;DHT22;38046;49.448;32.074;2023-05-07T05:29:21;18.50;42.10
52036;DHT22;38046;49.448;32.074;2023-05-07T05:31:47;18.30;42.10
52036;DHT22;38046;49.448;32.074;2023-05-07T05:34:13;18.00;42.20
52036;DHT22;38046;49.448;32.074;2023-05-07T05:36:39;17.70;42.20
52036;DHT22;38046;49.448;32.074;2023-05-07T05:39:05;17.30;42.50
52036;DHT22;38046;49.448;32.074;2023-05-07T05:41:31;17.10;42.70
52036;DHT22;38046;49.448;32.074;2023-05-07T05:43:57;16.80;42.90
52036;DHT22;38046;49.448;32.074;2023-05-07T05:46:22;16.60;43.20
52036;DHT22;38046;49.448;32.074;2023-05-07T05:48:48;16.50;43.40
52036;DHT22;38046;49.448;32.074;2023-05-07T05:51:13;16.40;43.40
52036;DHT22;38046;49.448;32.074;2023-05-07T05:53:39;16.30;43.30
52036;DHT22;38046;49.448;32.074;2023-05-07T05:56:05;16.20;43.30
52036;DHT22;38046;49.448;32.074;2023-05-07T05:58:31;16.10;43.40
52036;DHT22;38046;49.448;32.074;2023-05-07T06:00:56;16.00;43.80
52036;DHT22;38046;49.448;32.074;2023-05-07T06:03:23;16.00;43.70
52036;DHT22;38046;49.448;32.074;2023-05-07T06:05:49;15.90;43.60
52036;DHT22;38046;49.448;32.074;2023-05-07T06:08:14;15.80;43.40
52036;DHT22;38046;49.448;32.074;2023-05-07T06:10:40;15.60;43.50
52036;DHT22;38046;49.448;32.074;2023-05-07T06:13:06;15.50;43.90
52036;DHT22;38046;49.448;32.074;2023-05-07T06:15:31;15.40;43.90
52036;DHT22;38046;49.448;32.074;2023-05-07T06:17:57;15.30;44.10
52036;DHT22;38046;49.448;32.074;2023-05-07T06:20:23;15.20;44.20
52036;DHT22;38046;49.448;32.074;2023-05-07T06:22:49;15.10;44.10
52036;DHT22;38046;49.448;32.074;2023-05-07T06:25:14;15.10;43.80
52036;DHT22;38046;49.448;32.074;2023-05-07T06:27:40;15.10;44.00
52036;DHT22;38046;49.448;32.074;2023-05-07T06:30:07;15.00;43.80
52036;DHT22;38046;49.448;32.074;2023-05-07T06:32:32;15.00;43.90
52036;DHT22;38046;49.448;32.074;2023-05-07T06:34:58;14.90;43.60
52036;DHT22;38046;49.448;32.074;2023-05-07T06:37:24;14.90;43.40
52036;DHT22;38046;49.448;32.074;2023-05-07T06:39:50;14.70;43.00
52036;DHT22;38046;49.448;32.074;2023-05-07T06:42:15;14.60;43.10
52036;DHT22;38046;49.448;32.074;2023-05-07T06:44:41;14.40;43.50
52036;DHT22;38046;49.448;32.074;2023-05-07T06:47:07;14.30;43.60
52036;DHT22;38046;49.448;32.074;2023-05-07T06:49:32;14.30;43.20
52036;DHT22;38046;49.448;32.074;2023-05-07T06:51:58;14.20;43.20
52036;DHT22;38046;49.448;32.074;2023-05-07T06:54:24;14.10;43.40
52036;DHT22;38046;49.448;32.074;2023-05-07T06:56:50;14.10;43.40
52036;DHT22;38046;49.448;32.074;2023-05-07T06:59:15;14.10;43.30
52036;DHT22;38046;49.448;32.074;2023-05-07T07:01:41;14.10;43.20
52036;DHT22;38046;49.448;32.074;2023-05-07T07:04:07;14.10;43.20
52036;DHT22;38046;49.448;32.074;2023-05-07T07:06:32;14.00;43.30
52036;DHT22;38046;49.448;32.074;2023-05-07T07:08:59;13.90;43.30
52036;DHT22;38046;49.448;32.074;2023-05-07T07:11:25;13.80;44.00
52036;DHT22;38046;49.448;32.074;2023-05-07T07:13:50;13.80;43.30
52036;DHT22;38046;49.448;32.074;2023-05-07T07:16:16;13.80;43.50
52036;DHT22;38046;49.448;32.074;2023-05-07T07:18:42;13.70;43.60
52036;DHT22;38046;49.448;32.074;2023-05-07T07:21:08;13.70;43.70
52036;DHT22;38046;49.448;32.074;2023-05-07T07:23:33;13.70;43.80
52036;DHT22;38046;49.448;32.074;2023-05-07T07:25:59;13.70;43.90
52036;DHT22;38046;49.448;32.074;2023-05-07T07:28:25;13.70;43.70
52036;DHT22;38046;49.448;32.074;2023-05-07T07:30:50;13.60;43.50
52036;DHT22;38046;49.448;32.074;2023-05-07T07:33:16;13.50;43.60
52036;DHT22;38046;49.448;32.074;2023-05-07T07:35:42;13.40;43.80
52036;DHT22;38046;49.448;32.074;2023-05-07T07:38:07;13.40;43.80
52036;DHT22;38046;49.448;32.074;2023-05-07T07:40:36;13.30;44.20
52036;DHT22;38046;49.448;32.074;2023-05-07T07:43:02;13.30;44.10
52036;DHT22;38046;49.448;32.074;2023-05-07T07:45:28;13.30;44.70
52036;DHT22;38046;49.448;32.074;2023-05-07T07:47:54;13.40;44.80
52036;DHT22;38046;49.448;32.074;2023-05-07T07:50:20;13.50;44.50
52036;DHT22;38046;49.448;32.074;2023-05-07T07:52:46;13.60;44.30
52036;DHT22;38046;49.448;32.074;2023-05-07T07:55:12;13.70;44.20
52036;DHT22;38046;49.448;32.074;2023-05-07T07:57:37;13.70;44.20
52036;DHT22;38046;49.448;32.074;2023-05-07T08:00:04;13.80;44.20
52036;DHT22;38046;49.448;32.074;2023-05-07T08:02:31;13.90;44.10
52036;DHT22;38046;49.448;32.074;2023-05-07T08:04:57;14.00;43.90
52036;DHT22;38046;49.448;32.074;2023-05-07T08:07:22;14.10;44.00
52036;DHT22;38046;49.448;32.074;2023-05-07T08:09:48;14.20;44.20
52036;DHT22;38046;49.448;32.074;2023-05-07T08:12:14;14.20;44.10
52036;DHT22;38046;49.448;32.074;2023-05-07T08:14:40;14.20;43.80
52036;DHT22;38046;49.448;32.074;2023-05-07T08:17:06;14.30;43.90
52036;DHT22;38046;49.448;32.074;2023-05-07T08:19:31;14.30;43.70
52036;DHT22;38046;49.448;32.074;2023-05-07T08:21:57;14.30;43.50
52036;DHT22;38046;49.448;32.074;2023-05-07T08:24:23;14.30;43.40
52036;DHT22;38046;49.448;32.074;2023-05-07T08:26:48;14.30;43.20
52036;DHT22;38046;49.448;32.074;2023-05-07T08:29:15;14.30;43.00
52036;DHT22;38046;49.448;32.074;2023-05-07T08:31:40;14.30;43.20
52036;DHT22;38046;49.448;32.074;2023-05-07T08:34:06;14.30;43.00
52036;DHT22;38046;49.448;32.074;2023-05-07T08:36:32;14.30;42.80
52036;DHT22;38046;49.448;32.074;2023-05-07T08:38:58;14.30;42.80
52036;DHT22;38046;49.448;32.074;2023-05-07T08:41:24;14.30;42.90
52036;DHT22;38046;49.448;32.074;2023-05-07T08:43:50;14.30;43.10
52036;DHT22;38046;49.448;32.074;2023-05-07T08:46:19;14.30;42.90
52036;DHT22;38046;49.448;32.074;2023-05-07T08:48:47;14.30;42.70
52036;DHT22;38046;49.448;32.074;2023-05-07T08:51:15;14.30;42.70
52036;DHT22;38046;49.448;32.074;2023-05-07T08:53:41;14.30;42.60
52036;DHT22;38046;49.448;32.074;2023-05-07T08:56:08;14.40;42.60
52036;DHT22;38046;49.448;32.074;2023-05-07T08:58:34;14.40;42.70
52036;DHT22;38046;49.448;32.074;2023-05-07T09:01:05;14.40;42.70
52036;DHT22;38046;49.448;32.074;2023-05-07T09:03:33;14.50;42.80
52036;DHT22;38046;49.448;32.074;2023-05-07T09:05:58;14.50;42.60
52036;DHT22;38046;49.448;32.074;2023-05-07T09:08:25;14.50;42.60
52036;DHT22;38046;49.448;32.074;2023-05-07T09:10:52;14.50;42.60
52036;DHT22;38046;49.448;32.074;2023-05-07T09:13:17;14.50;42.40
52036;DHT22;38046;49.448;32.074;2023-05-07T09:15:43;14.50;42.20
52036;DHT22;38046;49.448;32.074;2023-05-07T09:18:09;14.50;42.20
52036;DHT22;38046;49.448;32.074;2023-05-07T09:20:37;14.60;43.00
52036;DHT22;38046;49.448;32.074;2023-05-07T09:23:02;14.60;42.20
52036;DHT22;38046;49.448;32.074;2023-05-07T09:25:34;14.60;42.30
52036;DHT22;38046;49.448;32.074;2023-05-07T09:28:02;14.60;42.00
52036;DHT22;38046;49.448;32.074;2023-05-07T09:30:29;14.60;42.30
52036;DHT22;38046;49.448;32.074;2023-05-07T09:32:56;14.60;42.30
52036;DHT22;38046;49.448;32.074;2023-05-07T09:35:22;14.60;42.50
52036;DHT22;38046;49.448;32.074;2023-05-07T09:37:49;14.60;42.30
52036;DHT22;38046;49.448;32.074;2023-05-07T09:42:48;14.60;42.70
52036;DHT22;38046;49.448;32.074;2023-05-07T09:45:36;14.60;42.60
52036;DHT22;38046;49.448;32.074;2023-05-07T09:48:04;14.60;42.90
52036;DHT22;38046;49.448;32.074;2023-05-07T09:50:36;14.60;42.80
52036;DHT22;38046;49.448;32.074;2023-05-07T09:53:03;14.50;42.80
52036;DHT22;38046;49.448;32.074;2023-05-07T09:55:29;14.50;42.60
52036;DHT22;38046;49.448;32.074;2023-05-07T09:57:55;14.50;42.40
52036;DHT22;38046;49.448;32.074;2023-05-07T10:00:22;14.50;42.10
52036;DHT22;38046;49.448;32.074;2023-05-07T10:02:51;14.40;42.00
52036;DHT22;38046;49.448;32.074;2023-05-07T10:05:21;14.40;42.10
52036;DHT22;38046;49.448;32.074;2023-05-07T10:07:48;14.30;42.20
52036;DHT22;38046;49.448;32.074;2023-05-07T10:10:14;14.20;42.30
52036;DHT22;38046;49.448;32.074;2023-05-07T10:12:41;14.10;42.30
52036;DHT22;38046;49.448;32.074;2023-05-07T10:15:08;14.00;42.30
52036;DHT22;38046;49.448;32.074;2023-05-07T10:17:38;14.00;42.50
52036;DHT22;38046;49.448;32.074;2023-05-07T10:20:05;13.90;42.50
52036;DHT22;38046;49.448;32.074;2023-05-07T10:22:47;13.90;42.60
52036;DHT22;38046;49.448;32.074;2023-05-07T10:25:18;13.80;42.60
52036;DHT22;38046;49.448;32.074;2023-05-07T10:27:48;13.80;42.90
52036;DHT22;38046;49.448;32.074;2023-05-07T10:32:55;13.70;42.80
52036;DHT22;38046;49.448;32.074;2023-05-07T10:35:29;13.80;42.90
52036;DHT22;38046;49.448;32.074;2023-05-07T10:37:56;13.80;42.80
52036;DHT22;38046;49.448;32.074;2023-05-07T10:40:22;13.80;43.00
52036;DHT22;38046;49.448;32.074;2023-05-07T10:45:21;13.70;42.30
52036;DHT22;38046;49.448;32.074;2023-05-07T10:50:33;13.70;42.60
52036;DHT22;38046;49.448;32.074;2023-05-07T10:55:42;13.70;43.00
52036;DHT22;38046;49.448;32.074;2023-05-07T10:58:37;13.70;43.10
52036;DHT22;38046;49.448;32.074;2023-05-07T11:01:03;13.70;42.60
52036;DHT22;38046;49.448;32.074;2023-05-07T11:03:29;13.70;42.90
52036;DHT22;38046;49.448;32.074;2023-05-07T11:06:15;13.70;42.80
52036;DHT22;38046;49.448;32.074;2023-05-07T11:08:56;13.70;42.70
52036;DHT22;38046;49.448;32.074;2023-05-07T11:11:44;13.70;42.70
52036;DHT22;38046;49.448;32.074;2023-05-07T11:14:10;13.70;42.70
52036;DHT22;38046;49.448;32.074;2023-05-07T11:16:37;13.70;42.60
52036;DHT22;38046;49.448;32.074;2023-05-07T11:19:03;13.80;42.70
52036;DHT22;38046;49.448;32.074;2023-05-07T11:21:41;13.80;42.60
52036;DHT22;38046;49.448;32.074;2023-05-07T11:24:10;13.80;42.20
52036;DHT22;38046;49.448;32.074;2023-05-07T11:26:46;13.80;42.30
52036;DHT22;38046;49.448;32.074;2023-05-07T11:29:20;13.70;42.70
52036;DHT22;38046;49.448;32.074;2023-05-07T11:31:50;13.70;42.70
52036;DHT22;38046;49.448;32.074;2023-05-07T11:34:21;13.70;43.40
52036;DHT22;38046;49.448;32.074;2023-05-07T11:36:48;13.80;43.30
52036;DHT22;38046;49.448;32.074;2023-05-07T11:39:31;13.80;42.80
52036;DHT22;38046;49.448;32.074;2023-05-07T11:41:59;13.80;42.30
52036;DHT22;38046;49.448;32.074;2023-05-07T11:44:25;13.70;42.10
52036;DHT22;38046;49.448;32.074;2023-05-07T11:46:50;13.70;42.70
52036;DHT22;38046;49.448;32.074;2023-05-07T11:49:17;13.70;42.60
52036;DHT22;38046;49.448;32.074;2023-05-07T11:51:43;13.80;58.20
52036;DHT22;38046;49.448;32.074;2023-05-07T11:54:09;13.70;69.60
52036;DHT22;38046;49.448;32.074;2023-05-07T11:56:37;13.00;72.80
52036;DHT22;38046;49.448;32.074;2023-05-07T11:59:02;12.20;74.80
52036;DHT22;38046;49.448;32.074;2023-05-07T12:01:28;11.40;77.90
52036;DHT22;38046;49.448;32.074;2023-05-07T12:03:54;10.90;79.70
52036;DHT22;38046;49.448;32.074;2023-05-07T12:06:20;10.50;81.90
52036;DHT22;38046;49.448;32.074;2023-05-07T12:08:46;10.40;85.90
52036;DHT22;38046;49.448;32.074;2023-05-07T12:11:21;10.40;87.20
52036;DHT22;38046;49.448;32.074;2023-05-07T12:13:47;10.40;86.10
52036;DHT22;38046;49.448;32.074;2023-05-07T12:16:14;10.40;89.10
52036;DHT22;38046;49.448;32.074;2023-05-07T12:18:40;10.50;90.30
52036;DHT22;38046;49.448;32.074;2023-05-07T12:21:06;10.60;90.90
52036;DHT22;38046;49.448;32.074;2023-05-07T12:23:34;10.70;88.90
52036;DHT22;38046;49.448;32.074;2023-05-07T12:26:01;10.80;87.70
52036;DHT22;38046;49.448;32.074;2023-05-07T12:28:26;10.90;88.60
52036;DHT22;38046;49.448;32.074;2023-05-07T12:30:52;10.90;86.80
52036;DHT22;38046;49.448;32.074;2023-05-07T12:33:23;11.00;85.50
52036;DHT22;38046;49.448;32.074;2023-05-07T12:35:48;11.10;87.80
52036;DHT22;38046;49.448;32.074;2023-05-07T12:38:16;11.20;89.40
52036;DHT22;38046;49.448;32.074;2023-05-07T12:40:46;11.20;88.10
52036;DHT22;38046;49.448;32.074;2023-05-07T12:43:29;11.30;90.00
52036;DHT22;38046;49.448;32.074;2023-05-07T12:45:57;11.40;88.90
52036;DHT22;38046;49.448;32.074;2023-05-07T12:48:24;11.40;88.90
52036;DHT22;38046;49.448;32.074;2023-05-07T12:50:56;11.50;89.20
52036;DHT22;38046;49.448;32.074;2023-05-07T12:53:24;11.60;89.80
52036;DHT22;38046;49.448;32.074;2023-05-07T12:55:53;11.60;85.10
52036;DHT22;38046;49.448;32.074;2023-05-07T12:58:19;11.70;86.50
52036;DHT22;38046;49.448;32.074;2023-05-07T13:00:48;11.70;86.50
52036;DHT22;38046;49.448;32.074;2023-05-07T13:03:22;11.80;86.30
52036;DHT22;38046;49.448;32.074;2023-05-07T13:05:48;11.80;84.40
52036;DHT22;38046;49.448;32.074;2023-05-07T13:08:24;11.90;84.80
52036;DHT22;38046;49.448;32.074;2023-05-07T13:10:50;11.90;82.00
52036;DHT22;38046;49.448;32.074;2023-05-07T13:13:15;12.00;80.70
52036;DHT22;38046;49.448;32.074;2023-05-07T13:15:41;12.00;81.00
52036;DHT22;38046;49.448;32.074;2023-05-07T13:18:06;12.00;81.10
52036;DHT22;38046;49.448;32.074;2023-05-07T13:20:32;12.10;79.20
52036;DHT22;38046;49.448;32.074;2023-05-07T13:22:57;12.10;77.70
52036;DHT22;38046;49.448;32.074;2023-05-07T13:25:26;12.20;77.00
52036;DHT22;38046;49.448;32.074;2023-05-07T13:27:52;12.30;77.50
52036;DHT22;38046;49.448;32.074;2023-05-07T13:30:17;12.40;75.60
52036;DHT22;38046;49.448;32.074;2023-05-07T13:32:43;12.50;75.80
52036;DHT22;38046;49.448;32.074;2023-05-07T13:35:09;12.60;76.70
52036;DHT22;38046;49.448;32.074;2023-05-07T13:37:35;12.60;75.80
52036;DHT22;38046;49.448;32.074;2023-05-07T13:40:00;12.70;75.30
52036;DHT22;38046;49.448;32.074;2023-05-07T13:42:26;12.80;73.90
52036;DHT22;38046;49.448;32.074;2023-05-07T13:44:51;12.80;73.80
52036;DHT22;38046;49.448;32.074;2023-05-07T13:47:17;12.80;72.20
52036;DHT22;38046;49.448;32.074;2023-05-07T13:49:43;12.90;72.50
52036;DHT22;38046;49.448;32.074;2023-05-07T13:52:08;13.00;71.00
52036;DHT22;38046;49.448;32.074;2023-05-07T13:54:34;13.00;69.60
52036;DHT22;38046;49.448;32.074;2023-05-07T13:56:59;13.10;69.80
52036;DHT22;38046;49.448;32.074;2023-05-07T13:59:25;13.10;69.80
52036;DHT22;38046;49.448;32.074;2023-05-07T14:01:51;13.10;70.00
52036;DHT22;38046;49.448;32.074;2023-05-07T14:04:17;13.20;70.00
52036;DHT22;38046;49.448;32.074;2023-05-07T14:06:42;13.30;69.80
52036;DHT22;38046;49.448;32.074;2023-05-07T14:09:08;13.30;69.30
52036;DHT22;38046;49.448;32.074;2023-05-07T14:11:37;13.30;69.30
52036;DHT22;38046;49.448;32.074;2023-05-07T14:14:03;13.40;69.30
52036;DHT22;38046;49.448;32.074;2023-05-07T14:16:28;13.50;68.80
52036;DHT22;38046;49.448;32.074;2023-05-07T14:18:54;13.50;68.20
52036;DHT22;38046;49.448;32.074;2023-05-07T14:21:19;13.50;67.50
52036;DHT22;38046;49.448;32.074;2023-05-07T14:23:45;13.60;66.70
52036;DHT22;38046;49.448;32.074;2023-05-07T14:26:11;13.60;66.20
52036;DHT22;38046;49.448;32.074;2023-05-07T14:28:36;13.70;65.70
52036;DHT22;38046;49.448;32.074;2023-05-07T14:31:05;13.70;65.00
52036;DHT22;38046;49.448;32.074;2023-05-07T14:33:31;13.70;64.80
52036;DHT22;38046;49.448;32.074;2023-05-07T14:35:57;13.70;64.00
52036;DHT22;38046;49.448;32.074;2023-05-07T14:38:22;13.80;64.10
52036;DHT22;38046;49.448;32.074;2023-05-07T14:40:48;13.80;62.90
52036;DHT22;38046;49.448;32.074;2023-05-07T14:43:14;13.80;62.50
52036;DHT22;38046;49.448;32.074;2023-05-07T14:45:39;13.80;61.90
52036;DHT22;38046;49.448;32.074;2023-05-07T14:48:05;13.90;61.70
52036;DHT22;38046;49.448;32.074;2023-05-07T14:50:31;13.90;61.50
52036;DHT22;38046;49.448;32.074;2023-05-07T14:52:56;13.90;61.20
52036;DHT22;38046;49.448;32.074;2023-05-07T14:55:22;14.00;60.70
52036;DHT22;38046;49.448;32.074;2023-05-07T14:57:47;14.00;60.60
52036;DHT22;38046;49.448;32.074;2023-05-07T15:00:13;14.10;60.80
52036;DHT22;38046;49.448;32.074;2023-05-07T15:02:40;14.00;60.30
52036;DHT22;38046;49.448;32.074;2023-05-07T15:05:06;14.10;60.20
52036;DHT22;38046;49.448;32.074;2023-05-07T15:07:32;14.10;60.10
52036;DHT22;38046;49.448;32.074;2023-05-07T15:09:59;14.10;59.20
52036;DHT22;38046;49.448;32.074;2023-05-07T15:12:25;14.10;58.80
52036;DHT22;38046;49.448;32.074;2023-05-07T15:14:50;14.10;59.20
52036;DHT22;38046;49.448;32.074;2023-05-07T15:17:16;14.10;58.80
52036;DHT22;38046;49.448;32.074;2023-05-07T15:19:42;14.20;58.50
52036;DHT22;38046;49.448;32.074;2023-05-07T15:22:07;14.20;58.40
52036;DHT22;38046;49.448;32.074;2023-05-07T15:24:33;14.20;58.40
52036;DHT22;38046;49.448;32.074;2023-05-07T15:26:58;14.20;58.20
52036;DHT22;38046;49.448;32.074;2023-05-07T15:29:24;14.20;58.40